KBJC/BJC METAR and TAF weather

Enter ICAO airport designator
Station Type Date Time Source
KBJC METAR 2021/05/12 02:45 UTC NOAA

KBJC 120245Z 00000KT 10SM SCT009 OVC029 05/03 A3028


Station Type Date Time Source
KBJC Decoded METAR 2021/05/12 02:45 UTC NOAA

Broomfield / Jeffco, CO, United States (KBJC) 39-55N 105-07W
May 11, 2021 - 10:45 PM EDT / 2021.05.12 0245 UTC
Wind: Calm:0
Visibility: 10 mile(s):0
Sky conditions: overcast
Temperature: 41 F (5 C)
Dew Point: 37 F (3 C)
Relative Humidity: 86%
Pressure (altimeter): 30.28 in. Hg (1025 hPa)
ob: KBJC 120245Z 00000KT 10SM SCT009 OVC029 05/03 A3028
cycle: 3

Station Type Date Time Source
KBJC TAF 2021/05/12 02:10 UTC NOAA

TAF
AMD KBJC 120208Z 1202/1224 VRB05KT P6SM BKN035
TEMPO 1202/1203 -SHRA BKN015
FM120300 VRB06KT P6SM SCT015 BKN040
FM120600 VRB05KT P6SM VCFG FEW010 SCT020
TEMPO 1210/1214 1SM BR BKN004
FM121400 VRB05KT P6SM FEW020
FM121900 07007KT P6SM SCT070

Example: see airport list